createdAt,value
2018-05-23T05:21:38.310Z,16.70
2018-05-23T05:24:10.197Z,16.70
2018-05-23T05:26:42.081Z,16.80
2018-05-23T05:29:13.960Z,16.80
2018-05-23T05:31:45.859Z,16.80
2018-05-23T05:34:18.013Z,16.80
2018-05-23T05:36:49.912Z,16.80
2018-05-23T05:39:21.791Z,16.80
2018-05-23T05:41:54.002Z,16.80
2018-05-23T05:44:25.893Z,16.80
2018-05-23T05:46:57.802Z,16.80
2018-05-23T05:49:29.685Z,16.80
2018-05-23T05:52:01.579Z,16.70
2018-05-23T05:54:33.458Z,16.80
2018-05-23T05:57:05.358Z,16.70
2018-05-23T05:59:38.252Z,16.80
2018-05-23T06:02:10.161Z,16.80
2018-05-23T06:04:42.043Z,16.90
2018-05-23T06:07:14.154Z,16.90
2018-05-23T06:09:46.046Z,17.00
2018-05-23T06:12:17.956Z,17.10
2018-05-23T06:14:50.127Z,17.10
2018-05-23T06:17:22.022Z,17.10
2018-05-23T06:19:53.904Z,17.10
2018-05-23T06:22:25.846Z,17.20
2018-05-23T06:24:57.707Z,17.20
2018-05-23T06:27:29.934Z,17.30
2018-05-23T06:30:01.829Z,17.30
2018-05-23T06:32:33.785Z,17.50
2018-05-23T06:35:05.922Z,17.60
2018-05-23T06:37:37.810Z,17.80
2018-05-23T06:40:09.688Z,17.90
2018-05-23T06:42:41.913Z,18.00
2018-05-23T06:45:13.813Z,18.10
2018-05-23T06:47:45.711Z,18.00
2018-05-23T06:50:18.376Z,18.10
2018-05-23T06:52:50.281Z,18.10
2018-05-23T06:55:22.154Z,18.10
2018-05-23T06:57:54.045Z,18.10
2018-05-23T07:00:25.933Z,18.10
2018-05-23T07:02:58.594Z,18.10
2018-05-23T07:05:30.552Z,18.10
2018-05-23T07:08:03.139Z,18.10
2018-05-23T07:10:35.030Z,18.10
2018-05-23T07:13:06.927Z,18.10
2018-05-23T07:15:39.055Z,18.10
2018-05-23T07:18:10.952Z,18.30
2018-05-23T07:20:43.606Z,18.50
2018-05-23T07:23:15.503Z,18.50
2018-05-23T07:25:47.405Z,18.60
2018-05-23T07:28:20.051Z,19.20
2018-05-23T07:30:51.932Z,19.20
2018-05-23T07:33:24.606Z,19.80
2018-05-23T07:35:57.518Z,20.00
2018-05-23T07:38:29.491Z,20.00
2018-05-23T07:41:01.318Z,20.50
2018-05-23T07:43:33.984Z,21.60
2018-05-23T07:46:05.866Z,21.60
2018-05-23T07:48:38.762Z,22.40
2018-05-23T07:51:10.926Z,22.40
2018-05-23T07:53:42.834Z,22.40
2018-05-23T07:56:14.954Z,22.20
2018-05-23T07:58:46.850Z,22.50
2018-05-23T08:01:18.980Z,22.80
2018-05-23T08:03:50.866Z,22.90
2018-05-23T08:06:23.111Z,23.00
2018-05-23T08:08:55.005Z,23.00
2018-05-23T08:11:26.890Z,22.90
2018-05-23T08:13:58.999Z,22.80
2018-05-23T08:16:30.882Z,22.70
2018-05-23T08:19:02.778Z,22.90
2018-05-23T08:21:34.877Z,23.20
2018-05-23T08:24:06.770Z,23.60
2018-05-23T08:26:38.650Z,24.10
2018-05-23T08:29:10.562Z,24.60
2018-05-23T08:31:42.445Z,24.60
2018-05-23T08:34:14.333Z,25.20
2018-05-23T08:36:46.213Z,25.40
2018-05-23T08:39:19.706Z,26.10
2018-05-23T08:41:51.582Z,26.10
2018-05-23T08:44:24.242Z,27.20
2018-05-23T08:46:56.131Z,27.20
2018-05-23T08:49:28.796Z,27.20
2018-05-23T08:52:01.450Z,26.40
2018-05-23T08:54:33.338Z,26.40
2018-05-23T08:57:05.996Z,25.70
2018-05-23T08:59:38.202Z,25.60
2018-05-23T09:02:10.077Z,25.60
2018-05-23T09:04:41.985Z,25.80
2018-05-23T09:07:13.854Z,26.00
2018-05-23T09:09:46.051Z,26.20
2018-05-23T09:12:18.042Z,26.30
2018-05-23T09:14:49.834Z,26.30
2018-05-23T09:17:21.710Z,26.30
2018-05-23T09:19:54.611Z,26.20
2018-05-23T09:22:26.777Z,26.20
2018-05-23T09:24:58.661Z,25.80
2018-05-23T09:27:30.548Z,25.60
2018-05-23T09:30:02.437Z,25.50
2018-05-23T09:32:35.073Z,25.20
2018-05-23T09:35:07.202Z,25.20
2018-05-23T09:37:39.078Z,25.20
2018-05-23T09:40:11.026Z,25.30
2018-05-23T09:42:43.659Z,25.80
2018-05-23T09:45:15.883Z,25.80
2018-05-23T09:47:47.693Z,26.00
2018-05-23T09:50:19.582Z,26.40
2018-05-23T09:52:52.232Z,27.10
2018-05-23T09:55:24.434Z,27.10
2018-05-23T09:57:56.314Z,27.30
2018-05-23T10:00:28.205Z,27.50
2018-05-23T10:03:00.073Z,27.50
2018-05-23T10:05:31.957Z,27.40
2018-05-23T10:08:04.594Z,27.00
2018-05-23T10:10:36.494Z,27.00
2018-05-23T10:13:09.135Z,26.30
2018-05-23T10:15:41.051Z,26.20
2018-05-23T10:18:12.929Z,25.80
2018-05-23T10:20:44.823Z,25.60
2018-05-23T10:23:16.693Z,25.40
2018-05-23T10:25:48.595Z,25.30
2018-05-23T10:28:20.466Z,25.30
2018-05-23T10:30:52.360Z,25.20
2018-05-23T10:33:24.269Z,24.70
2018-05-23T10:35:56.135Z,24.50
2018-05-23T10:38:28.297Z,24.30
2018-05-23T10:41:00.187Z,24.20
2018-05-23T10:43:32.056Z,24.00
2018-05-23T10:46:03.949Z,23.80
2018-05-23T10:48:35.814Z,23.80
2018-05-23T10:51:07.706Z,23.80
2018-05-23T10:53:39.581Z,23.70
2018-05-23T10:56:11.474Z,23.50
2018-05-23T10:58:43.585Z,23.60
2018-05-23T11:01:15.753Z,23.70
2018-05-23T11:03:47.632Z,23.70
2018-05-23T11:06:19.528Z,23.60
2018-05-23T11:08:52.205Z,23.70
2018-05-23T11:11:24.066Z,23.70
2018-05-23T11:13:55.946Z,23.70
2018-05-23T11:16:27.834Z,23.80
2018-05-23T11:18:59.710Z,23.80
2018-05-23T11:21:31.601Z,23.80
2018-05-23T11:24:03.478Z,23.70
2018-05-23T11:26:35.684Z,23.60
2018-05-23T11:29:07.850Z,23.60
2018-05-23T11:31:39.750Z,23.50
2018-05-23T11:34:11.622Z,23.40
2018-05-23T11:36:43.511Z,23.30
2018-05-23T11:39:16.149Z,22.90
2018-05-23T11:41:48.039Z,22.90
2018-05-23T11:44:20.235Z,22.70
2018-05-23T11:46:52.129Z,22.50
2018-05-23T11:49:24.005Z,22.40
2018-05-23T11:51:56.118Z,22.40
2018-05-23T11:54:27.994Z,22.30
2018-05-23T11:56:59.886Z,22.30
2018-05-23T11:59:31.778Z,22.30
2018-05-23T12:02:04.442Z,22.30
2018-05-23T12:04:37.107Z,22.40
2018-05-23T12:07:08.992Z,22.30
2018-05-23T12:09:40.898Z,22.30
2018-05-23T12:12:12.788Z,22.30
2018-05-23T12:14:44.688Z,22.30
2018-05-23T12:17:17.337Z,22.60
2018-05-23T12:19:49.215Z,22.50
2018-05-23T12:22:21.884Z,22.50
2018-05-23T12:24:54.087Z,22.50
2018-05-23T12:27:26.254Z,22.50
2018-05-23T12:29:58.455Z,22.40
2018-05-23T12:32:30.581Z,22.20
2018-05-23T12:35:02.458Z,22.10
2018-05-23T12:37:34.345Z,22.20
2018-05-23T12:40:06.214Z,22.20
2018-05-23T12:42:38.110Z,22.20
2018-05-23T12:45:10.754Z,22.40
2018-05-23T12:47:42.648Z,22.30
2018-05-23T12:50:15.281Z,22.30
2018-05-23T12:52:47.173Z,22.30
2018-05-23T12:55:19.062Z,22.30
2018-05-23T12:57:51.716Z,22.50
2018-05-23T13:00:23.587Z,22.50
2018-05-23T13:02:55.479Z,22.60
2018-05-23T13:05:27.626Z,22.60
2018-05-23T13:07:59.536Z,22.50
2018-05-23T13:10:31.649Z,22.40
2018-05-23T13:13:03.550Z,22.20
2018-05-23T13:15:35.683Z,22.30
2018-05-23T13:18:07.574Z,22.30
2018-05-23T13:20:39.444Z,22.30
2018-05-23T13:23:11.357Z,22.30
2018-05-23T13:25:43.226Z,22.30
2018-05-23T13:28:15.122Z,22.30
2018-05-23T13:30:46.993Z,22.40
2018-05-23T13:33:18.890Z,22.50
2018-05-23T13:35:51.545Z,22.60
2018-05-23T13:38:23.438Z,22.60
2018-05-23T13:40:55.301Z,22.70
2018-05-23T13:43:27.210Z,22.70
2018-05-23T13:45:59.428Z,22.80
2018-05-23T13:48:31.547Z,22.80
2018-05-23T13:51:03.430Z,22.80
2018-05-23T13:53:36.095Z,22.90
2018-05-23T13:56:07.977Z,22.90
2018-05-23T13:58:40.637Z,23.20
2018-05-23T14:01:12.834Z,23.10
2018-05-23T14:03:44.726Z,23.40
2018-05-23T14:06:16.602Z,23.30
2018-05-23T14:08:48.721Z,23.30
2018-05-23T14:11:20.619Z,23.10
2018-05-23T14:13:52.511Z,22.90
2018-05-23T14:16:24.711Z,22.90
2018-05-23T14:18:56.603Z,23.00
2018-05-23T14:21:28.479Z,23.00
2018-05-23T14:24:00.383Z,23.10
2018-05-23T14:26:33.030Z,23.40
2018-05-23T14:29:04.940Z,23.40
2018-05-23T14:31:36.822Z,23.50
2018-05-23T14:34:08.715Z,23.60
2018-05-23T14:36:40.594Z,23.60
2018-05-23T14:39:13.246Z,23.30
2018-05-23T14:41:45.129Z,23.30
2018-05-23T14:44:17.843Z,23.20
2018-05-23T14:46:49.758Z,23.20
2018-05-23T14:49:21.712Z,23.10
2018-05-23T14:51:53.590Z,23.00
2018-05-23T14:54:26.252Z,22.90
2018-05-23T14:56:58.125Z,22.90
2018-05-23T14:59:30.802Z,22.90
2018-05-23T15:02:02.690Z,22.90
2018-05-23T15:04:34.859Z,22.80
2018-05-23T15:07:06.721Z,22.80
2018-05-23T15:09:38.635Z,22.90
2018-05-23T15:12:10.555Z,22.90
2018-05-23T15:14:42.450Z,22.90
2018-05-23T15:17:14.541Z,23.00
2018-05-23T15:19:47.241Z,23.10
2018-05-23T15:22:19.081Z,23.10
2018-05-23T15:24:51.735Z,23.20
2018-05-23T15:27:23.630Z,23.20
2018-05-23T15:29:56.285Z,23.30
2018-05-23T15:32:28.485Z,23.30
2018-05-23T15:35:00.445Z,23.30
2018-05-23T15:37:32.477Z,23.40
2018-05-23T15:40:04.384Z,23.50
2018-05-23T15:42:36.265Z,23.60
2018-05-23T15:45:08.153Z,23.70
2018-05-23T15:47:40.039Z,23.70
2018-05-23T15:50:12.689Z,23.90
2018-05-23T15:52:44.903Z,23.80
2018-05-23T15:55:17.066Z,24.00
2018-05-23T15:57:48.941Z,24.00
2018-05-23T16:00:20.826Z,24.10
2018-05-23T16:02:52.832Z,24.20
2018-05-23T16:05:24.642Z,24.30
2018-05-23T16:07:56.518Z,24.30
2018-05-23T16:10:28.415Z,24.30
2018-05-23T16:13:01.050Z,24.20
2018-05-23T16:15:32.967Z,24.20
2018-05-23T16:18:04.845Z,24.10
2018-05-23T16:20:37.023Z,24.20
2018-05-23T16:23:08.876Z,24.20
2018-05-23T16:25:40.768Z,24.20
2018-05-23T16:28:12.642Z,24.20
2018-05-23T16:30:44.534Z,24.10
2018-05-23T16:33:16.413Z,24.10
2018-05-23T16:35:48.314Z,24.10
2018-05-23T16:38:20.193Z,24.00
2018-05-23T16:40:52.083Z,23.90
2018-05-23T16:43:23.953Z,23.90
2018-05-23T16:45:55.841Z,23.90
2018-05-23T16:48:27.723Z,23.90
2018-05-23T16:50:59.615Z,23.90
2018-05-23T16:53:32.264Z,23.80
2018-05-23T16:56:04.158Z,23.70
2018-05-23T16:58:36.041Z,23.80
2018-05-23T17:01:07.925Z,23.70
2018-05-23T17:03:39.799Z,23.70
2018-05-23T17:06:11.694Z,23.70
2018-05-23T17:08:44.330Z,23.80
2018-05-23T17:11:16.216Z,23.80
2018-05-23T17:13:48.862Z,23.80
2018-05-23T17:16:21.078Z,23.70
2018-05-23T17:18:52.963Z,23.80
2018-05-23T17:21:24.865Z,23.80
2018-05-23T17:23:56.745Z,23.80
2018-05-23T17:26:29.393Z,23.70
2018-05-23T17:29:01.277Z,23.70
2018-05-23T17:31:33.157Z,23.80
2018-05-23T17:34:05.039Z,23.80
2018-05-23T17:36:36.926Z,23.80
2018-05-23T17:39:08.802Z,23.80
2018-05-23T17:41:40.689Z,23.90
2018-05-23T17:44:13.586Z,23.90
2018-05-23T17:46:45.690Z,23.90
2018-05-23T17:49:18.428Z,23.90
2018-05-23T17:51:51.100Z,23.90
2018-05-23T17:54:23.743Z,23.90
2018-05-23T17:56:55.705Z,23.80
2018-05-23T17:59:28.286Z,23.70
2018-05-23T18:02:00.174Z,23.70
2018-05-23T18:04:33.070Z,23.70
2018-05-23T18:07:04.966Z,23.70
2018-05-23T18:09:37.093Z,23.70
2018-05-23T18:12:09.024Z,23.70
2018-05-23T18:14:40.870Z,23.70
2018-05-23T18:17:12.759Z,23.60
2018-05-23T18:19:45.393Z,23.70
2018-05-23T18:22:17.518Z,23.60
2018-05-23T18:24:49.389Z,23.70
2018-05-23T18:27:21.278Z,23.60
2018-05-23T18:29:53.149Z,23.60
2018-05-23T18:32:25.031Z,23.60
2018-05-23T18:34:56.910Z,23.60
2018-05-23T18:37:29.572Z,23.50
2018-05-23T18:40:01.451Z,23.40
2018-05-23T18:42:34.098Z,23.30
2018-05-23T18:45:05.985Z,23.40
2018-05-23T18:47:38.881Z,23.30
2018-05-23T18:50:10.754Z,23.30
2018-05-23T18:52:42.642Z,23.30
2018-05-23T18:55:14.513Z,23.20
2018-05-23T18:57:46.408Z,23.10
2018-05-23T19:00:19.043Z,23.00
2018-05-23T19:02:50.936Z,23.00
2018-05-23T19:05:22.818Z,23.00
2018-05-23T19:07:55.470Z,22.90
2018-05-23T19:10:27.357Z,22.90
2018-05-23T19:13:00.008Z,22.80
2018-05-23T19:15:31.883Z,22.80
2018-05-23T19:18:04.542Z,22.70
2018-05-23T19:20:36.424Z,22.70
2018-05-23T19:23:09.066Z,22.60
2018-05-23T19:25:40.942Z,22.60
2018-05-23T19:28:12.939Z,22.60
2018-05-23T19:30:44.839Z,22.50
2018-05-23T19:33:16.725Z,22.40
2018-05-23T19:35:48.607Z,22.40
2018-05-23T19:38:21.266Z,22.30
2018-05-23T19:40:53.138Z,22.20
2018-05-23T19:43:25.879Z,22.10
2018-05-23T19:45:57.769Z,22.10
2018-05-23T19:48:29.971Z,22.10
2018-05-23T19:51:01.850Z,22.00
2018-05-23T19:53:33.741Z,21.90
2018-05-23T19:56:05.615Z,21.90
2018-05-23T19:58:37.498Z,21.80
2018-05-23T20:01:10.175Z,21.70
2018-05-23T20:03:42.826Z,21.60
2018-05-23T20:06:14.706Z,21.60
2018-05-23T20:08:47.367Z,21.60
2018-05-23T20:11:19.308Z,21.60
